createdAt,value
2022-10-12T00:02:01.741Z,8.32
2022-10-12T00:04:29.670Z,8.75
2022-10-12T00:06:57.633Z,9.32
2022-10-12T00:09:25.565Z,9.43
2022-10-12T00:11:53.455Z,8.48
2022-10-12T00:14:21.461Z,8.57
2022-10-12T00:16:49.408Z,8.15
2022-10-12T00:19:18.774Z,9.60
2022-10-12T00:21:46.993Z,9.05
2022-10-12T00:24:14.944Z,8.57
2022-10-12T00:26:42.868Z,7.70
2022-10-12T00:29:10.883Z,8.68
2022-10-12T00:31:39.011Z,8.05
2022-10-12T00:34:07.273Z,8.88
2022-10-12T00:36:37.325Z,8.55
2022-10-12T00:39:08.086Z,8.88
2022-10-12T00:41:39.064Z,8.93
2022-10-12T00:44:38.545Z,8.52
2022-10-12T00:47:13.682Z,8.25
2022-10-12T00:49:41.871Z,7.90
2022-10-12T00:52:14.330Z,8.85
2022-10-12T00:54:46.132Z,7.80
2022-10-12T00:57:16.003Z,8.05
2022-10-12T00:59:49.904Z,7.80
2022-10-12T01:02:19.041Z,8.57
2022-10-12T01:04:47.202Z,7.90
2022-10-12T01:07:17.053Z,7.97
2022-10-12T01:09:44.968Z,7.53
2022-10-12T01:12:13.443Z,7.53
2022-10-12T01:14:41.374Z,8.35
2022-10-12T01:17:20.939Z,9.32
2022-10-12T01:20:10.043Z,8.50
2022-10-12T01:22:46.635Z,8.38
2022-10-12T01:25:31.742Z,7.88
2022-10-12T01:28:08.914Z,8.60
2022-10-12T01:30:44.745Z,7.43
2022-10-12T01:33:24.662Z,9.65
2022-10-12T01:35:59.613Z,8.95
2022-10-12T01:38:39.561Z,8.30
2022-10-12T01:41:14.368Z,7.70
2022-10-12T01:43:45.283Z,7.85
2022-10-12T01:46:43.691Z,8.40
2022-10-12T01:49:12.982Z,10.07
2022-10-12T01:52:03.407Z,8.63
2022-10-12T01:54:45.051Z,8.43
2022-10-12T01:57:21.360Z,7.95
2022-10-12T01:59:59.432Z,7.55
2022-10-12T02:02:35.217Z,7.35
2022-10-12T02:05:11.591Z,7.78
2022-10-12T02:07:43.689Z,8.68
2022-10-12T02:10:15.981Z,8.15
2022-10-12T02:12:46.496Z,7.75
2022-10-12T02:15:16.076Z,8.45
2022-10-12T02:17:49.105Z,8.20
2022-10-12T02:20:19.640Z,8.77
2022-10-12T02:22:51.547Z,8.63
2022-10-12T02:25:23.873Z,8.38
2022-10-12T02:27:57.034Z,10.68
2022-10-12T02:30:25.273Z,9.73
2022-10-12T02:33:00.446Z,9.00
2022-10-12T02:35:36.403Z,8.15
2022-10-12T02:38:11.711Z,8.18
2022-10-12T02:40:44.517Z,7.72
2022-10-12T02:43:17.757Z,7.32
2022-10-12T02:45:49.489Z,9.13
2022-10-12T02:48:21.701Z,7.97
2022-10-12T02:50:52.743Z,7.78
2022-10-12T02:53:21.847Z,7.40
2022-10-12T02:55:50.942Z,9.35
2022-10-12T02:58:19.264Z,9.23
2022-10-12T03:00:47.467Z,11.10
2022-10-12T03:03:15.381Z,7.43
2022-10-12T03:05:45.019Z,8.63
2022-10-12T03:08:13.022Z,7.32
2022-10-12T03:10:40.966Z,7.97
2022-10-12T03:13:09.051Z,6.95
2022-10-12T03:15:36.989Z,7.50
2022-10-12T03:18:05.141Z,8.18
2022-10-12T03:20:33.114Z,7.60
2022-10-12T03:23:02.586Z,7.38
2022-10-12T03:25:30.507Z,7.68
2022-10-12T03:27:58.413Z,7.00
2022-10-12T03:30:26.385Z,7.68
2022-10-12T03:32:54.485Z,7.28
2022-10-12T03:35:22.383Z,7.20
2022-10-12T03:37:50.416Z,7.25
2022-10-12T03:40:19.695Z,8.30
2022-10-12T03:42:48.008Z,7.55
2022-10-12T03:45:19.124Z,9.10
2022-10-12T03:47:48.081Z,9.57
2022-10-12T03:50:16.113Z,8.50
2022-10-12T03:52:44.027Z,9.40
2022-10-12T03:55:11.948Z,9.65
2022-10-12T03:57:48.363Z,9.75
2022-10-12T04:00:16.798Z,10.15
2022-10-12T04:02:44.908Z,9.38
2022-10-12T04:05:12.870Z,10.13
2022-10-12T04:07:41.234Z,9.63
2022-10-12T04:10:10.173Z,8.55
2022-10-12T04:12:38.147Z,8.73
2022-10-12T04:15:08.824Z,8.35
2022-10-12T04:17:37.385Z,8.48
2022-10-12T04:20:07.078Z,7.82
2022-10-12T04:22:35.205Z,8.80
2022-10-12T04:25:03.135Z,8.65
2022-10-12T04:27:31.517Z,8.68
2022-10-12T04:29:59.481Z,8.10
2022-10-12T04:32:28.789Z,8.63
2022-10-12T04:34:56.794Z,8.13
2022-10-12T04:37:24.845Z,8.02
2022-10-12T04:39:52.785Z,7.45
2022-10-12T04:42:20.741Z,7.78
2022-10-12T04:44:48.669Z,8.38
2022-10-12T04:47:16.616Z,8.32
2022-10-12T04:49:46.023Z,8.38
2022-10-12T04:52:13.926Z,8.65
2022-10-12T04:54:41.830Z,8.50
2022-10-12T04:57:10.045Z,8.25
2022-10-12T04:59:37.985Z,7.90
2022-10-12T05:02:05.890Z,8.25
2022-10-12T05:07:04.321Z,8.55
2022-10-12T05:09:32.408Z,7.50
2022-10-12T05:12:00.459Z,8.00
2022-10-12T05:14:32.260Z,7.95
2022-10-12T05:17:03.894Z,8.10
2022-10-12T05:19:31.837Z,7.60
2022-10-12T05:21:59.793Z,8.68
2022-10-12T05:24:29.357Z,8.63
2022-10-12T05:26:57.528Z,8.10
2022-10-12T05:29:25.451Z,7.95
2022-10-12T05:31:53.477Z,7.53
2022-10-12T05:34:21.696Z,7.68
2022-10-12T05:36:50.513Z,8.38
2022-10-12T05:39:18.445Z,8.40
2022-10-12T05:41:47.813Z,7.55
2022-10-12T05:44:15.829Z,7.88
2022-10-12T05:46:44.109Z,8.48
2022-10-12T05:49:12.312Z,8.65
2022-10-12T05:51:40.625Z,8.57
2022-10-12T05:54:08.704Z,8.63
2022-10-12T05:56:36.692Z,7.72
2022-10-12T05:59:06.131Z,8.80
2022-10-12T06:01:34.282Z,7.50
2022-10-12T06:04:02.222Z,7.97
2022-10-12T06:06:30.141Z,7.32
2022-10-12T06:08:58.185Z,7.72
2022-10-12T06:11:26.169Z,7.72
2022-10-12T06:13:54.983Z,7.18
2022-10-12T06:16:24.418Z,8.13
2022-10-12T06:18:52.352Z,7.65
2022-10-12T06:21:33.145Z,7.30
2022-10-12T06:24:01.801Z,8.02
2022-10-12T06:26:29.802Z,10.57
2022-10-12T06:28:57.828Z,10.23
2022-10-12T06:31:27.444Z,7.90
2022-10-12T06:33:55.423Z,7.93
2022-10-12T06:36:23.950Z,8.85
2022-10-12T06:38:51.915Z,7.65
2022-10-12T06:41:19.883Z,11.27
2022-10-12T06:43:47.999Z,12.77
2022-10-12T06:46:16.087Z,10.80
2022-10-12T06:48:45.420Z,7.90
2022-10-12T06:51:13.424Z,8.45
2022-10-12T06:53:41.732Z,8.00
2022-10-12T06:56:10.804Z,8.25
2022-10-12T06:58:39.380Z,9.13
2022-10-12T07:01:10.428Z,8.50
2022-10-12T07:03:38.584Z,7.85
2022-10-12T07:06:10.004Z,9.15
2022-10-12T07:08:38.159Z,8.63
2022-10-12T07:11:07.738Z,9.45
2022-10-12T07:13:36.317Z,8.63
2022-10-12T07:16:05.339Z,8.35
2022-10-12T07:18:33.527Z,8.40
2022-10-12T07:21:02.918Z,8.93
2022-10-12T07:23:33.441Z,9.05
2022-10-12T07:26:04.458Z,8.10
2022-10-12T07:28:32.910Z,10.18
2022-10-12T07:31:05.373Z,8.95
2022-10-12T07:33:41.277Z,8.85
2022-10-12T07:36:15.001Z,9.15
2022-10-12T07:38:51.745Z,9.10
2022-10-12T07:41:23.291Z,8.25
2022-10-12T07:43:56.595Z,8.55
2022-10-12T07:46:26.192Z,8.68
2022-10-12T07:48:54.718Z,9.02
2022-10-12T07:51:22.732Z,8.32
2022-10-12T07:53:55.745Z,8.48
2022-10-12T07:56:24.352Z,8.10
2022-10-12T07:58:56.232Z,8.25
2022-10-12T08:01:31.134Z,8.23
2022-10-12T08:04:03.391Z,8.07
2022-10-12T08:06:35.533Z,7.63
2022-10-12T08:09:09.572Z,7.63
2022-10-12T08:11:40.770Z,8.30
2022-10-12T08:14:15.910Z,7.97
2022-10-12T08:16:50.011Z,7.63
2022-10-12T08:19:22.791Z,9.07
2022-10-12T08:21:54.925Z,7.93
2022-10-12T08:24:24.583Z,6.35
2022-10-12T08:26:52.510Z,6.90
2022-10-12T08:29:20.536Z,6.95
2022-10-12T08:31:49.489Z,6.65
2022-10-12T08:34:17.636Z,6.57
2022-10-12T08:36:45.593Z,7.68
2022-10-12T08:39:13.729Z,6.45
2022-10-12T08:41:52.366Z,7.18
2022-10-12T08:44:32.148Z,7.15
2022-10-12T08:47:03.840Z,6.70
2022-10-12T08:49:34.585Z,5.95
2022-10-12T08:52:08.067Z,6.30
2022-10-12T08:54:42.718Z,6.53
2022-10-12T08:57:17.113Z,6.95
2022-10-12T08:59:45.338Z,6.13
2022-10-12T09:02:36.260Z,6.32
2022-10-12T09:05:10.209Z,6.53
2022-10-12T09:07:41.759Z,6.25
2022-10-12T09:10:28.426Z,6.50
2022-10-12T09:13:07.333Z,6.38
2022-10-12T09:15:40.535Z,6.57
2022-10-12T09:18:18.143Z,7.10
2022-10-12T09:20:49.283Z,7.03
2022-10-12T09:23:26.168Z,6.45
2022-10-12T09:25:58.427Z,7.00
2022-10-12T09:28:36.186Z,6.22
2022-10-12T09:31:23.694Z,6.70
2022-10-12T09:33:55.011Z,6.60
2022-10-12T09:36:26.638Z,5.85
2022-10-12T09:38:54.989Z,6.45
2022-10-12T09:41:28.541Z,6.15
2022-10-12T09:43:59.980Z,6.03
2022-10-12T09:46:36.544Z,6.40
2022-10-12T09:49:04.664Z,6.47
2022-10-12T09:51:32.976Z,6.45
2022-10-12T09:54:04.381Z,6.78
2022-10-12T09:56:40.891Z,6.80
2022-10-12T09:59:27.592Z,6.22
2022-10-12T10:02:00.239Z,5.97
2022-10-12T10:04:30.363Z,6.22
2022-10-12T10:07:14.045Z,6.10
2022-10-12T10:09:42.150Z,5.07
2022-10-12T10:12:22.634Z,5.90
2022-10-12T10:14:53.427Z,6.05
2022-10-12T10:17:26.645Z,6.13
2022-10-12T10:19:56.137Z,6.10
2022-10-12T10:22:25.121Z,6.47
2022-10-12T10:24:59.144Z,6.03
2022-10-12T10:27:33.217Z,6.28
2022-10-12T10:30:33.769Z,6.57
2022-10-12T10:33:17.765Z,6.40
2022-10-12T10:35:57.029Z,6.80
2022-10-12T10:38:25.474Z,6.28
2022-10-12T10:40:55.761Z,5.60
2022-10-12T10:43:28.106Z,6.22
2022-10-12T10:46:02.062Z,5.25
2022-10-12T10:48:36.109Z,5.07
2022-10-12T10:51:06.276Z,5.38
2022-10-12T10:53:45.146Z,6.43
2022-10-12T10:56:16.213Z,5.95
2022-10-12T10:58:47.563Z,4.90
2022-10-12T11:01:22.915Z,5.00
2022-10-12T11:03:56.787Z,5.47
2022-10-12T11:06:37.234Z,5.40
2022-10-12T11:09:11.726Z,6.07
2022-10-12T11:11:43.288Z,4.90
2022-10-12T11:14:17.247Z,5.78
2022-10-12T11:16:51.901Z,4.90
2022-10-12T11:19:27.730Z,5.45
2022-10-12T11:21:59.287Z,5.80
2022-10-12T11:24:33.653Z,5.65
2022-10-12T11:27:07.011Z,5.30
2022-10-12T11:29:36.641Z,5.28
2022-10-12T11:32:09.430Z,5.18
2022-10-12T11:34:46.998Z,5.28
2022-10-12T11:37:20.980Z,5.50
2022-10-12T11:39:53.777Z,5.43
2022-10-12T11:42:30.549Z,5.35
2022-10-12T11:45:00.764Z,5.40
2022-10-12T11:47:38.056Z,5.25
2022-10-12T11:50:15.309Z,5.32
2022-10-12T11:52:47.293Z,5.38
2022-10-12T11:55:31.316Z,5.25
2022-10-12T11:58:10.261Z,5.30
2022-10-12T12:00:52.266Z,5.10
2022-10-12T12:03:30.064Z,5.47
2022-10-12T12:06:21.784Z,5.10
2022-10-12T12:08:59.764Z,5.22
2022-10-12T12:11:30.660Z,4.63
2022-10-12T12:14:37.085Z,5.63
2022-10-12T12:17:30.936Z,9.50
2022-10-12T12:20:03.249Z,5.03
2022-10-12T12:22:50.197Z,5.45
2022-10-12T12:25:30.234Z,5.00
2022-10-12T12:28:19.850Z,5.25
2022-10-12T12:30:58.934Z,5.07
2022-10-12T12:33:42.274Z,5.03
2022-10-12T12:36:14.453Z,5.45
2022-10-12T12:38:48.482Z,5.00
2022-10-12T12:41:19.185Z,5.32
2022-10-12T12:43:59.000Z,5.43
2022-10-12T12:46:46.891Z,5.72
2022-10-12T12:49:29.116Z,5.00
2022-10-12T12:51:59.850Z,5.25
2022-10-12T12:54:28.738Z,5.78
2022-10-12T12:57:14.507Z,5.60
2022-10-12T13:00:08.733Z,5.30
2022-10-12T13:03:19.044Z,5.90
2022-10-12T13:06:11.894Z,6.18
2022-10-12T13:08:53.727Z,5.88
2022-10-12T13:11:49.646Z,5.82
2022-10-12T13:14:38.136Z,5.18
2022-10-12T13:17:32.301Z,5.88
2022-10-12T13:20:03.220Z,5.30
2022-10-12T13:22:35.195Z,5.25
2022-10-12T13:25:09.063Z,5.50
2022-10-12T13:27:44.292Z,5.28
2022-10-12T13:30:21.038Z,5.57
2022-10-12T13:32:54.873Z,5.20
2022-10-12T13:35:33.521Z,5.78
2022-10-12T13:38:03.403Z,5.57
2022-10-12T13:40:38.479Z,5.72
2022-10-12T13:43:35.865Z,5.65
2022-10-12T13:46:07.962Z,5.78
2022-10-12T13:49:00.929Z,5.80
2022-10-12T13:51:26.464Z,6.13
2022-10-12T13:53:54.476Z,5.60
2022-10-12T13:56:26.405Z,5.78
2022-10-12T13:58:59.138Z,5.50
2022-10-12T14:01:27.904Z,5.20
2022-10-12T14:04:03.713Z,6.20
2022-10-12T14:06:33.866Z,5.75
2022-10-12T14:09:09.712Z,5.55
2022-10-12T14:11:40.102Z,6.57
2022-10-12T14:14:14.209Z,6.13
2022-10-12T14:16:42.273Z,6.45
2022-10-12T14:19:21.508Z,5.88
2022-10-12T14:21:50.581Z,6.03
2022-10-12T14:24:20.305Z,5.78
2022-10-12T14:26:56.788Z,6.10
2022-10-12T14:29:33.327Z,6.05
2022-10-12T14:32:03.694Z,6.10
2022-10-12T14:34:46.588Z,6.88
2022-10-12T14:37:31.644Z,6.50
2022-10-12T14:40:04.100Z,6.00
2022-10-12T14:42:35.400Z,6.47
2022-10-12T14:45:07.290Z,5.80
2022-10-12T14:47:39.276Z,6.30
2022-10-12T14:50:09.890Z,5.90
2022-10-12T14:52:41.507Z,6.50
2022-10-12T14:55:23.173Z,6.60
2022-10-12T14:57:56.113Z,6.80
2022-10-12T15:00:29.722Z,6.75
2022-10-12T15:03:01.417Z,6.47
2022-10-12T15:05:37.046Z,6.75
2022-10-12T15:08:09.499Z,6.53
2022-10-12T15:10:44.216Z,6.07
2022-10-12T15:13:16.648Z,6.45
2022-10-12T15:15:49.917Z,5.70
2022-10-12T15:18:19.060Z,14.18
2022-10-12T15:20:50.553Z,17.75
2022-10-12T15:23:19.143Z,6.85
2022-10-12T15:25:53.234Z,6.95
2022-10-12T15:28:24.683Z,7.43
2022-10-12T15:31:16.412Z,6.95
2022-10-12T15:33:45.642Z,6.97
2022-10-12T15:36:13.677Z,6.78
2022-10-12T15:38:43.788Z,6.68
2022-10-12T15:41:19.907Z,6.38
2022-10-12T15:43:49.451Z,6.78
2022-10-12T15:46:17.500Z,7.15
2022-10-12T15:48:47.487Z,6.28
2022-10-12T15:51:22.841Z,7.00
2022-10-12T15:53:51.078Z,7.15
2022-10-12T15:56:28.614Z,7.20
2022-10-12T15:58:58.338Z,6.97
2022-10-12T16:01:26.360Z,6.90
2022-10-12T16:03:54.651Z,6.93
2022-10-12T16:06:23.311Z,7.82
2022-10-12T16:08:51.687Z,8.25
2022-10-12T16:11:20.555Z,6.65
2022-10-12T16:13:55.507Z,6.40
2022-10-12T16:16:26.306Z,6.85
2022-10-12T16:18:54.440Z,7.40
2022-10-12T16:21:22.640Z,7.55
2022-10-12T16:23:50.794Z,7.50
2022-10-12T16:26:21.280Z,7.38
2022-10-12T16:28:49.526Z,7.47
2022-10-12T16:31:18.719Z,7.38
2022-10-12T16:33:50.431Z,7.32
2022-10-12T16:36:19.391Z,8.13
2022-10-12T16:38:50.508Z,7.28
2022-10-12T16:41:19.545Z,6.95
2022-10-12T16:43:47.837Z,7.00
2022-10-12T16:46:16.088Z,6.95
2022-10-12T16:48:45.497Z,7.38
2022-10-12T16:51:15.710Z,6.53
2022-10-12T16:53:48.615Z,7.88
2022-10-12T16:56:17.059Z,7.60
2022-10-12T16:58:45.332Z,7.70
2022-10-12T17:01:17.078Z,6.53
2022-10-12T17:03:45.528Z,7.03
2022-10-12T17:06:14.922Z,7.43
2022-10-12T17:08:45.638Z,7.30
2022-10-12T17:11:17.135Z,7.13
2022-10-12T17:13:48.938Z,7.10
2022-10-12T17:16:41.556Z,7.53
2022-10-12T17:19:12.899Z,7.55
2022-10-12T17:21:42.919Z,7.78
2022-10-12T17:24:14.197Z,6.82
2022-10-12T17:26:43.626Z,7.30
2022-10-12T17:29:14.665Z,7.90
2022-10-12T17:31:46.954Z,7.90
2022-10-12T17:34:22.106Z,7.28
2022-10-12T17:36:56.063Z,8.43
2022-10-12T17:39:25.780Z,7.85
2022-10-12T17:41:54.356Z,8.13
2022-10-12T17:44:23.288Z,8.48
2022-10-12T17:46:51.920Z,7.80
2022-10-12T17:49:24.988Z,8.20
2022-10-12T17:51:55.028Z,8.50
2022-10-12T17:54:26.285Z,8.75
2022-10-12T17:56:55.527Z,8.07
2022-10-12T17:59:25.196Z,8.05
2022-10-12T18:01:53.870Z,8.57
2022-10-12T18:04:22.310Z,7.47
2022-10-12T18:06:50.505Z,8.02
2022-10-12T18:09:21.213Z,8.10
2022-10-12T18:11:49.666Z,8.65
2022-10-12T18:14:17.934Z,8.93
2022-10-12T18:16:45.900Z,7.88
2022-10-12T18:19:17.496Z,7.68
2022-10-12T18:21:46.665Z,8.07
2022-10-12T18:24:17.727Z,7.90
2022-10-12T18:26:50.201Z,7.53
2022-10-12T18:29:18.327Z,7.85
2022-10-12T18:31:49.683Z,7.10
2022-10-12T18:34:18.944Z,7.00
2022-10-12T18:36:47.110Z,7.47
2022-10-12T18:39:17.468Z,6.70
2022-10-12T18:41:47.468Z,7.13
2022-10-12T18:44:17.812Z,6.95
2022-10-12T18:46:48.711Z,6.80
2022-10-12T18:49:19.479Z,6.40
2022-10-12T18:51:49.858Z,6.93
2022-10-12T18:54:18.293Z,6.88
2022-10-12T18:56:49.693Z,6.60
2022-10-12T18:59:22.514Z,6.63
2022-10-12T19:01:50.886Z,7.05
2022-10-12T19:04:19.178Z,7.13
2022-10-12T19:06:47.191Z,5.70
2022-10-12T19:09:15.600Z,6.40
2022-10-12T19:11:43.918Z,6.75
2022-10-12T19:14:15.048Z,6.32
2022-10-12T19:16:45.933Z,6.35
2022-10-12T19:19:20.486Z,6.05
2022-10-12T19:21:50.061Z,6.50
2022-10-12T19:24:19.239Z,5.75
2022-10-12T19:26:47.824Z,5.55
2022-10-12T19:29:20.743Z,5.97
2022-10-12T19:31:52.139Z,5.97
2022-10-12T19:34:23.882Z,5.25
2022-10-12T19:36:54.874Z,4.70
2022-10-12T19:39:24.768Z,5.32
2022-10-12T19:41:53.599Z,5.13
2022-10-12T19:44:22.121Z,5.03
2022-10-12T19:46:53.648Z,4.70
2022-10-12T19:49:21.749Z,5.20
2022-10-12T19:51:50.975Z,4.50
2022-10-12T19:54:19.738Z,4.85
2022-10-12T19:56:47.854Z,4.75
2022-10-12T19:59:16.995Z,4.80
2022-10-12T20:01:48.140Z,4.35
2022-10-12T20:04:20.046Z,4.65
2022-10-12T20:06:52.373Z,4.85
2022-10-12T20:09:25.643Z,5.22
2022-10-12T20:11:54.266Z,4.43
2022-10-12T20:14:22.548Z,4.60
2022-10-12T20:16:53.106Z,4.37
2022-10-12T20:19:22.949Z,3.70
2022-10-12T20:21:51.230Z,3.60
2022-10-12T20:24:19.485Z,4.25
2022-10-12T20:26:47.654Z,3.97
2022-10-12T20:29:15.953Z,4.00
2022-10-12T20:31:44.362Z,4.28
2022-10-12T20:34:12.806Z,4.03
2022-10-12T20:36:42.312Z,4.03
2022-10-12T20:39:10.413Z,4.93
2022-10-12T20:41:40.397Z,5.28
2022-10-12T20:44:10.618Z,4.78
2022-10-12T20:46:38.785Z,5.67
2022-10-12T20:49:06.895Z,5.45
2022-10-12T20:51:36.941Z,4.47
2022-10-12T20:54:09.022Z,5.32
2022-10-12T20:56:41.190Z,4.93
2022-10-12T20:59:12.464Z,4.80
2022-10-12T21:01:40.686Z,5.50
2022-10-12T21:04:10.179Z,4.57
2022-10-12T21:06:39.369Z,5.70
2022-10-12T21:09:10.906Z,6.27
2022-10-12T21:11:40.231Z,5.28
2022-10-12T21:14:15.504Z,6.72
2022-10-12T21:16:43.563Z,4.80
2022-10-12T21:19:16.413Z,4.17
2022-10-12T21:21:44.946Z,4.50
2022-10-12T21:24:15.028Z,3.93
2022-10-12T21:26:44.888Z,3.97
2022-10-12T21:29:13.798Z,3.67
2022-10-12T21:31:41.844Z,3.43
2022-10-12T21:34:12.157Z,3.80
2022-10-12T21:36:40.414Z,3.37
2022-10-12T21:39:13.992Z,3.20
2022-10-12T21:41:43.620Z,3.33
2022-10-12T21:44:12.666Z,3.33
2022-10-12T21:46:46.195Z,4.53
2022-10-12T21:49:14.445Z,5.80
2022-10-12T21:51:42.429Z,6.23
2022-10-12T21:54:12.426Z,5.40
2022-10-12T21:56:40.481Z,5.87
2022-10-12T21:59:10.777Z,6.43
2022-10-12T22:01:41.703Z,6.40
2022-10-12T22:04:16.214Z,5.90
2022-10-12T22:06:44.587Z,5.63
2022-10-12T22:09:16.671Z,5.80
2022-10-12T22:11:47.993Z,5.20
2022-10-12T22:14:24.351Z,5.47
2022-10-12T22:16:52.342Z,5.60
2022-10-12T22:19:22.559Z,5.47
2022-10-12T22:21:55.661Z,5.57
2022-10-12T22:24:23.862Z,5.30
2022-10-12T22:26:51.818Z,5.23
2022-10-12T22:29:21.415Z,5.10
2022-10-12T22:31:52.391Z,4.40
2022-10-12T22:34:20.529Z,5.13
2022-10-12T22:36:48.618Z,5.27
2022-10-12T22:39:17.803Z,5.50
2022-10-12T22:41:46.336Z,5.40
2022-10-12T22:44:14.445Z,5.27
2022-10-12T22:46:43.991Z,5.30
2022-10-12T22:49:12.216Z,5.23
2022-10-12T22:51:40.923Z,5.00
2022-10-12T22:54:11.119Z,5.40
2022-10-12T22:56:39.650Z,5.63
2022-10-12T22:59:08.042Z,5.57
2022-10-12T23:01:39.291Z,5.90
2022-10-12T23:04:09.315Z,5.30
2022-10-12T23:06:37.403Z,6.40
2022-10-12T23:09:05.832Z,5.23
2022-10-12T23:11:35.017Z,5.13
2022-10-12T23:14:03.331Z,5.50
2022-10-12T23:16:34.493Z,7.73
2022-10-12T23:19:05.124Z,7.40
2022-10-12T23:21:35.813Z,5.20
2022-10-12T23:24:05.912Z,5.77
2022-10-12T23:26:34.783Z,6.30
2022-10-12T23:29:03.174Z,6.30
2022-10-12T23:31:32.147Z,8.77
2022-10-12T23:34:02.723Z,6.70
2022-10-12T23:36:31.319Z,8.00
2022-10-12T23:39:02.500Z,10.90
2022-10-12T23:41:30.598Z,8.27
2022-10-12T23:43:58.599Z,8.13
2022-10-12T23:46:27.103Z,8.33
2022-10-12T23:48:55.075Z,9.00
2022-10-12T23:51:23.218Z,8.43
2022-10-12T23:53:51.289Z,8.57
2022-10-12T23:56:20.714Z,9.63
2022-10-12T23:58:48.972Z,8.57
